Time;durP1;ratioP1;P1;durP2;ratioP2;P2;SDS_P1;SDS_P2;PMS_P1;PMS_P2;Temp;Humidity;BMP_temperature;BMP_pressure;BME280_temperature;BME280_humidity;BME280_pressure;Samples;Min_cycle;Max_cycle;Signal;HPM_P1;HPM_P2
2021/12/02 00:00:13;;;;;;;4.00;1.50;;;6.00;13.10;;;;;;5061567;28;20060;-70
2021/12/02 00:02:43;;;;;;;4.32;1.90;;;5.90;13.20;;;;;;5056223;28;20052;-70
2021/12/02 00:05:11;;;;;;;3.00;1.08;;;5.90;13.50;;;;;;5055463;28;20045;-70
2021/12/02 00:07:42;;;;;;;3.72;1.10;;;5.80;13.80;;;;;;5053296;28;20054;-70
2021/12/02 00:10:10;;;;;;;3.42;1.05;;;5.80;14.20;;;;;;5049372;28;20575;-69
2021/12/02 00:12:40;;;;;;;5.82;1.13;;;5.80;13.50;;;;;;5055576;28;20043;-70
2021/12/02 00:15:20;;;;;;;3.50;0.90;;;5.80;13.50;;;;;;5056074;28;20052;-70
2021/12/02 00:17:54;;;;;;;3.17;1.13;;;5.70;13.30;;;;;;5056577;28;20041;-70
2021/12/02 00:23:33;;;;;;;2.95;1.00;;;5.60;12.90;;;;;;5054664;28;20161;-71
2021/12/02 00:26:04;;;;;;;1.80;0.90;;;5.70;11.70;;;;;;5052183;28;20052;-69
2021/12/02 00:28:38;;;;;;;2.45;1.02;;;5.70;11.30;;;;;;5052028;28;20044;-71
2021/12/02 00:31:16;;;;;;;1.40;0.87;;;5.70;10.20;;;;;;5053942;28;20139;-71
2021/12/02 00:33:49;;;;;;;3.35;0.80;;;5.70;10.30;;;;;;5055492;28;20676;-71
2021/12/02 00:36:22;;;;;;;3.92;0.88;;;5.70;9.40;;;;;;5053464;28;20033;-71
2021/12/02 00:38:52;;;;;;;2.45;0.90;;;5.70;9.40;;;;;;5053493;28;20553;-71
2021/12/02 00:41:23;;;;;;;2.05;0.98;;;5.60;9.30;;;;;;5051538;28;20048;-69
2021/12/02 00:43:56;;;;;;;4.78;1.70;;;5.60;9.40;;;;;;5051210;28;20051;-69
2021/12/02 00:46:31;;;;;;;5.68;1.30;;;5.60;8.90;;;;;;5060179;28;20044;-69
2021/12/02 00:49:06;;;;;;;4.13;0.90;;;5.60;8.40;;;;;;5052755;28;20051;-69
2021/12/02 00:51:37;;;;;;;4.03;1.15;;;5.60;8.90;;;;;;5054342;28;20086;-70
2021/12/02 00:54:08;;;;;;;1.80;0.82;;;5.60;9.10;;;;;;5057205;28;20406;-70
2021/12/02 00:56:36;;;;;;;4.35;1.25;;;5.60;9.40;;;;;;5053197;28;20407;-70
2021/12/02 00:59:05;;;;;;;2.42;0.98;;;5.70;8.60;;;;;;5051047;28;20113;-70
2021/12/02 01:01:36;;;;;;;3.55;1.20;;;5.70;8.60;;;;;;5052596;28;20136;-70
2021/12/02 01:04:10;;;;;;;1.98;0.70;;;5.70;8.60;;;;;;5053900;28;20053;-70
2021/12/02 01:06:39;;;;;;;1.33;0.70;;;5.80;8.00;;;;;;5059649;28;20124;-70
2021/12/02 01:09:09;;;;;;;2.90;1.05;;;5.70;8.50;;;;;;5050611;28;20342;-70
2021/12/02 01:11:39;;;;;;;3.08;1.42;;;5.70;9.40;;;;;;5052199;28;20154;-70
2021/12/02 01:14:10;;;;;;;3.70;1.08;;;5.70;9.40;;;;;;5056452;28;20056;-70
2021/12/02 01:16:38;;;;;;;3.15;1.00;;;5.60;9.40;;;;;;5058006;28;20045;-69
2021/12/02 01:19:11;;;;;;;2.78;0.93;;;5.50;10.50;;;;;;5050691;28;20071;-70
2021/12/02 01:21:43;;;;;;;2.45;0.73;;;5.50;10.70;;;;;;5057383;28;20040;-71
2021/12/02 01:24:20;;;;;;;3.80;1.00;;;5.40;10.90;;;;;;5057329;28;20119;-70
2021/12/02 01:26:54;;;;;;;4.63;1.13;;;5.50;11.50;;;;;;5054468;28;20041;-70
2021/12/02 01:29:25;;;;;;;2.28;1.35;;;5.40;11.00;;;;;;5052308;28;20053;-70
2021/12/02 01:32:02;;;;;;;6.45;0.85;;;5.40;11.60;;;;;;5060146;28;20127;-70
2021/12/02 01:34:33;;;;;;;4.05;0.90;;;5.40;12.50;;;;;;5051220;28;20056;-70
2021/12/02 01:37:03;;;;;;;4.57;1.30;;;5.40;12.50;;;;;;5054083;28;20045;-70
2021/12/02 01:39:31;;;;;;;5.25;1.42;;;5.50;12.10;;;;;;5053803;28;20188;-69
2021/12/02 01:42:02;;;;;;;4.60;1.30;;;5.50;12.50;;;;;;5051963;28;20051;-69
2021/12/02 01:44:30;;;;;;;4.22;0.98;;;5.60;12.30;;;;;;5055342;28;20053;-69
2021/12/02 01:47:00;;;;;;;1.25;0.63;;;5.70;11.90;;;;;;5054522;28;20043;-69
2021/12/02 01:49:40;;;;;;;1.92;0.90;;;5.70;12.10;;;;;;5048131;28;20056;-69
2021/12/02 01:52:14;;;;;;;1.25;0.70;;;5.70;12.10;;;;;;5055375;28;20737;-69
2021/12/02 01:54:45;;;;;;;4.88;1.00;;;5.70;12.10;;;;;;5053684;28;20586;-70
2021/12/02 01:57:28;;;;;;;2.05;0.80;;;5.80;12.40;;;;;;5040172;28;20036;-69
2021/12/02 02:00:07;;;;;;;1.48;0.80;;;5.80;12.40;;;;;;5054050;28;20128;-70
2021/12/02 02:02:39;;;;;;;3.30;0.90;;;5.80;12.10;;;;;;5056214;28;20051;-70
2021/12/02 02:05:13;;;;;;;3.97;0.80;;;5.80;12.40;;;;;;5050014;28;20143;-70
2021/12/02 02:07:54;;;;;;;1.23;0.55;;;5.80;12.70;;;;;;5055265;28;20691;-70
2021/12/02 02:10:25;;;;;;;3.15;0.93;;;5.80;13.10;;;;;;5055950;28;20056;-70
2021/12/02 02:12:58;;;;;;;1.08;0.57;;;5.80;13.20;;;;;;5051476;28;20105;-70
2021/12/02 02:15:30;;;;;;;3.10;0.70;;;5.70;13.90;;;;;;5054818;28;20040;-70
2021/12/02 02:18:04;;;;;;;1.95;1.00;;;5.70;14.70;;;;;;5050488;28;20059;-70
2021/12/02 02:20:40;;;;;;;1.63;1.00;;;5.70;15.40;;;;;;5053798;28;20452;-70
2021/12/02 02:23:12;;;;;;;3.92;0.82;;;5.60;15.90;;;;;;5049038;28;20044;-70
2021/12/02 02:25:44;;;;;;;3.20;1.08;;;5.60;16.50;;;;;;5049758;28;20055;-70
2021/12/02 02:28:13;;;;;;;2.83;0.88;;;5.60;16.50;;;;;;5049444;28;20060;-69
2021/12/02 02:30:42;;;;;;;2.22;1.00;;;5.60;16.50;;;;;;5053707;28;20093;-70
2021/12/02 02:33:12;;;;;;;2.70;0.73;;;5.60;16.50;;;;;;5057840;28;20048;-70
2021/12/02 02:35:43;;;;;;;2.40;0.88;;;5.60;16.50;;;;;;5052647;28;20098;-71
2021/12/02 02:38:11;;;;;;;3.08;0.80;;;5.50;17.10;;;;;;5053352;28;20121;-70
2021/12/02 02:40:42;;;;;;;1.38;0.85;;;5.50;16.90;;;;;;5052258;28;20139;-70
2021/12/02 02:43:20;;;;;;;3.22;0.90;;;5.40;16.50;;;;;;5052238;28;20378;-70
2021/12/02 02:45:49;;;;;;;2.55;0.90;;;5.40;16.40;;;;;;5051559;28;20144;-70
2021/12/02 02:48:21;;;;;;;2.45;0.80;;;5.30;16.30;;;;;;5049374;28;20106;-68
2021/12/02 02:50:52;;;;;;;2.20;0.80;;;5.30;16.30;;;;;;5058447;28;20566;-70
2021/12/02 02:53:25;;;;;;;3.05;0.75;;;5.40;16.40;;;;;;5053753;28;20125;-70
2021/12/02 02:56:03;;;;;;;2.80;0.90;;;5.40;15.50;;;;;;5051747;28;20052;-71
2021/12/02 02:58:43;;;;;;;2.30;0.77;;;5.30;15.40;;;;;;5052595;28;20132;-70
2021/12/02 03:01:24;;;;;;;1.85;0.57;;;5.30;15.60;;;;;;5050575;28;20518;-71
2021/12/02 03:04:04;;;;;;;1.00;0.50;;;5.30;15.50;;;;;;5054487;28;20094;-71
2021/12/02 03:06:45;;;;;;;1.88;0.70;;;5.20;15.50;;;;;;5039293;28;20630;-70
2021/12/02 03:09:20;;;;;;;1.20;0.40;;;5.20;15.70;;;;;;5058505;28;20052;-70
2021/12/02 03:11:50;;;;;;;1.98;0.40;;;5.10;16.00;;;;;;5047958;28;20056;-70
2021/12/02 03:14:26;;;;;;;0.95;0.40;;;5.10;16.20;;;;;;5040573;28;20090;-70
2021/12/02 03:16:54;;;;;;;0.75;0.35;;;5.10;16.20;;;;;;5056447;28;20044;-70
2021/12/02 03:19:25;;;;;;;0.70;0.40;;;5.10;16.70;;;;;;5052709;28;20045;-70
2021/12/02 03:21:56;;;;;;;1.45;0.60;;;5.00;16.60;;;;;;5056079;28;20129;-70
2021/12/02 03:24:25;;;;;;;1.48;0.40;;;5.00;17.10;;;;;;5055174;28;20049;-70
2021/12/02 03:26:53;;;;;;;1.02;0.40;;;5.00;17.10;;;;;;5054241;28;20049;-70
2021/12/02 03:29:22;;;;;;;0.73;0.50;;;5.00;17.30;;;;;;5053777;28;20052;-70
2021/12/02 03:31:56;;;;;;;1.15;0.47;;;5.00;17.50;;;;;;5056058;28;20044;-70
2021/12/02 03:34:27;;;;;;;0.63;0.43;;;4.90;17.70;;;;;;5055320;28;20052;-70
2021/12/02 03:36:59;;;;;;;1.58;0.57;;;4.90;18.50;;;;;;5051813;28;20420;-70
2021/12/02 03:39:30;;;;;;;1.33;0.32;;;4.90;18.10;;;;;;5051429;28;20127;-70
2021/12/02 03:41:59;;;;;;;2.05;0.60;;;4.80;18.50;;;;;;5055839;28;20060;-70
2021/12/02 03:44:30;;;;;;;3.50;0.60;;;4.80;18.70;;;;;;5055977;28;20136;-69
2021/12/02 03:47:04;;;;;;;1.52;0.60;;;4.80;19.50;;;;;;5052856;28;20045;-69
2021/12/02 03:49:32;;;;;;;0.75;0.50;;;4.70;19.40;;;;;;5052009;28;20106;-69
2021/12/02 03:52:02;;;;;;;2.30;0.77;;;4.70;19.40;;;;;;5054349;28;20056;-69
2021/12/02 03:54:33;;;;;;;2.30;1.00;;;4.70;19.80;;;;;;5054690;28;20565;-70
2021/12/02 03:57:07;;;;;;;;;;;4.80;19.50;;;;;;5053573;28;20044;-69
2021/12/02 03:59:39;;;;;;;2.45;0.82;;;4.70;19.40;;;;;;5054307;28;19920;-70
2021/12/02 04:02:07;;;;;;;1.23;0.80;;;4.70;19.80;;;;;;5059271;28;20041;-70
2021/12/02 04:04:35;;;;;;;6.18;1.15;;;4.70;20.10;;;;;;5060550;28;20461;-70
2021/12/02 04:07:07;;;;;;;2.20;0.70;;;4.70;20.30;;;;;;5059452;28;20108;-69
2021/12/02 04:09:40;;;;;;;2.50;0.90;;;4.70;20.00;;;;;;5056118;28;20118;-68
2021/12/02 04:12:14;;;;;;;2.80;0.80;;;4.70;20.20;;;;;;5058128;28;20053;-68
2021/12/02 04:14:49;;;;;;;;;;;4.70;20.30;;;;;;5056716;28;20147;-68
2021/12/02 04:17:18;;;;;;;3.15;0.70;;;4.70;20.50;;;;;;5057982;28;20442;-69
2021/12/02 04:19:48;;;;;;;3.70;1.17;;;4.70;20.70;;;;;;5058719;28;20053;-68
2021/12/02 04:22:18;;;;;;;1.05;0.80;;;4.70;20.70;;;;;;5061713;28;20064;-69
2021/12/02 04:24:49;;;;;;;3.03;0.60;;;4.70;21.00;;;;;;5060558;28;20055;-69
2021/12/02 04:27:19;;;;;;;1.48;0.63;;;4.60;21.00;;;;;;5057836;28;20470;-68
2021/12/02 04:29:53;;;;;;;3.53;1.20;;;4.60;21.50;;;;;;5054698;28;20551;-68
2021/12/02 04:32:21;;;;;;;2.65;0.80;;;4.50;21.70;;;;;;5058821;28;20044;-69
2021/12/02 04:34:49;;;;;;;2.05;1.10;;;4.50;21.90;;;;;;5060203;28;20087;-69
2021/12/02 04:37:20;;;;;;;1.35;0.60;;;4.50;22.20;;;;;;5059916;28;20620;-69
2021/12/02 04:39:49;;;;;;;2.78;0.90;;;4.40;22.60;;;;;;5058862;28;20404;-67
2021/12/02 04:42:23;;;;;;;4.50;1.23;;;4.40;23.40;;;;;;5058318;28;20412;-68
2021/12/02 04:44:54;;;;;;;1.98;0.95;;;4.40;23.60;;;;;;5057455;28;21661;-68
2021/12/02 04:47:24;;;;;;;4.55;1.05;;;4.40;23.60;;;;;;5061138;28;20072;-68
2021/12/02 04:49:58;;;;;;;3.67;1.10;;;4.40;23.20;;;;;;5056837;28;20451;-68
2021/12/02 04:52:31;;;;;;;2.55;1.23;;;4.50;23.00;;;;;;5058267;28;20037;-68
2021/12/02 04:55:01;;;;;;;3.38;1.60;;;4.50;23.00;;;;;;5058422;28;20119;-69
2021/12/02 04:57:29;;;;;;;2.50;1.25;;;4.50;22.80;;;;;;5060634;28;20110;-69
2021/12/02 05:00:03;;;;;;;1.75;1.27;;;4.50;22.80;;;;;;5059186;28;20041;-69
2021/12/02 05:02:31;;;;;;;4.53;1.25;;;4.60;22.80;;;;;;5058153;28;20059;-69
2021/12/02 05:05:00;;;;;;;4.35;1.00;;;4.60;22.10;;;;;;5053897;28;20408;-69
2021/12/02 05:07:27;;;;;;;2.53;1.10;;;4.70;21.40;;;;;;5060671;28;20583;-68
2021/12/02 05:09:59;;;;;;;3.65;0.90;;;4.70;21.20;;;;;;5056975;28;20036;-68
2021/12/02 05:12:27;;;;;;;1.92;1.15;;;4.70;20.90;;;;;;5058820;28;20056;-70
2021/12/02 05:14:55;;;;;;;2.55;1.10;;;4.80;20.50;;;;;;5056815;28;20075;-69
2021/12/02 05:17:23;;;;;;;1.63;0.93;;;4.80;20.60;;;;;;5060601;28;20102;-69
2021/12/02 05:19:52;;;;;;;2.40;1.00;;;4.80;20.40;;;;;;5058444;28;20055;-69
2021/12/02 05:22:23;;;;;;;2.67;1.30;;;4.80;20.00;;;;;;5066090;28;20050;-69
2021/12/02 05:24:54;;;;;;;2.97;0.98;;;4.80;20.00;;;;;;5055202;28;20117;-68
2021/12/02 05:27:27;;;;;;;3.15;1.00;;;4.80;19.90;;;;;;5064936;28;20054;-68
2021/12/02 05:29:55;;;;;;;3.53;0.85;;;4.90;19.90;;;;;;5063372;28;20123;-68
2021/12/02 05:32:30;;;;;;;2.20;0.80;;;4.90;19.60;;;;;;5063084;28;20037;-68
2021/12/02 05:34:59;;;;;;;3.90;0.95;;;4.90;19.60;;;;;;5063280;28;20063;-68
2021/12/02 05:37:30;;;;;;;9.00;1.40;;;4.90;19.10;;;;;;5064717;28;20098;-68
2021/12/02 05:39:58;;;;;;;2.45;0.88;;;4.90;18.80;;;;;;5058317;28;20048;-68
2021/12/02 05:42:32;;;;;;;2.28;0.90;;;4.90;18.80;;;;;;5058848;28;20436;-70
2021/12/02 05:45:03;;;;;;;2.60;0.82;;;4.90;19.10;;;;;;5062015;28;20048;-68
2021/12/02 05:47:31;;;;;;;1.55;0.60;;;4.90;19.20;;;;;;5063807;28;20879;-69
2021/12/02 05:49:59;;;;;;;3.40;0.80;;;4.90;18.80;;;;;;5062433;28;20036;-68
2021/12/02 05:52:33;;;;;;;3.38;0.80;;;4.90;18.90;;;;;;5068632;28;20101;-68
2021/12/02 05:55:03;;;;;;;2.63;0.60;;;4.90;18.60;;;;;;5060593;28;20048;-69
2021/12/02 05:57:32;;;;;;;1.20;0.60;;;4.90;18.00;;;;;;5065635;28;20127;-69
2021/12/02 06:00:05;;;;;;;2.08;0.80;;;5.00;18.90;;;;;;5062748;28;20036;-69
2021/12/02 06:02:35;;;;;;;3.35;0.50;;;5.00;19.60;;;;;;5060384;28;20063;-68
2021/12/02 06:05:06;;;;;;;1.35;0.70;;;5.00;21.20;;;;;;5062280;28;20044;-68
2021/12/02 06:07:35;;;;;;;3.65;0.70;;;4.90;21.60;;;;;;5063016;28;20059;-68
2021/12/02 06:10:03;;;;;;;1.35;0.70;;;4.90;21.70;;;;;;5058984;28;20072;-69
2021/12/02 06:12:36;;;;;;;1.13;0.70;;;4.80;21.30;;;;;;5066999;28;20040;-68
2021/12/02 06:15:09;;;;;;;0.63;0.50;;;4.80;21.30;;;;;;5059585;28;20512;-70
2021/12/02 06:17:37;;;;;;;1.92;1.00;;;4.70;21.70;;;;;;5059209;28;20140;-70
2021/12/02 06:20:13;;;;;;;2.53;0.82;;;4.70;21.90;;;;;;5067121;28;20075;-69
2021/12/02 06:22:43;;;;;;;2.42;1.05;;;4.70;22.80;;;;;;5061925;28;20047;-69
2021/12/02 06:25:44;;;;;;;4.18;1.33;;;4.70;22.80;;;;;;5061488;28;20566;-69
2021/12/02 06:28:13;;;;;;;2.67;1.52;;;4.70;22.90;;;;;;5067697;28;20053;-69
2021/12/02 06:30:42;;;;;;;1.88;1.00;;;4.70;22.80;;;;;;5065473;28;20036;-69
2021/12/02 06:33:11;;;;;;;1.30;0.68;;;4.70;22.80;;;;;;5062501;28;20052;-69
2021/12/02 06:35:41;;;;;;;1.10;0.60;;;4.70;22.50;;;;;;5062517;28;20063;-68
2021/12/02 06:38:11;;;;;;;1.25;0.75;;;4.60;22.80;;;;;;5062501;28;20094;-69
2021/12/02 06:40:45;;;;;;;1.60;1.00;;;4.60;22.80;;;;;;5066399;28;20203;-69
2021/12/02 06:43:18;;;;;;;1.20;1.10;;;4.60;22.80;;;;;;5068097;28;20049;-69
2021/12/02 06:45:47;;;;;;;2.83;0.82;;;4.50;22.80;;;;;;5063275;28;20040;-69
2021/12/02 06:48:16;;;;;;;1.10;0.93;;;4.60;23.20;;;;;;5065581;28;20044;-70
2021/12/02 06:50:44;;;;;;;1.95;1.10;;;4.60;23.80;;;;;;5070218;28;20131;-68
2021/12/02 06:53:17;;;;;;;2.58;1.10;;;4.60;24.00;;;;;;5064873;28;20570;-69
2021/12/02 06:55:46;;;;;;;1.48;0.95;;;4.60;23.80;;;;;;5065784;28;20044;-69
2021/12/02 06:58:14;;;;;;;2.30;0.82;;;4.50;23.20;;;;;;5067420;28;20075;-68
2021/12/02 07:00:45;;;;;;;1.13;0.90;;;4.60;24.00;;;;;;5063593;28;20469;-69
2021/12/02 07:03:17;;;;;;;2.23;0.70;;;4.50;23.70;;;;;;5070841;28;20122;-69
2021/12/02 07:05:46;;;;;;;1.30;0.63;;;4.60;23.90;;;;;;5063970;28;20049;-69
2021/12/02 07:08:14;;;;;;;1.65;0.90;;;4.60;23.60;;;;;;5058672;28;20079;-69
2021/12/02 07:10:43;;;;;;;2.38;0.80;;;4.60;22.80;;;;;;5069365;28;20071;-69
2021/12/02 07:13:11;;;;;;;3.42;1.20;;;4.60;22.80;;;;;;5065618;28;20062;-69
2021/12/02 07:15:50;;;;;;;2.30;0.75;;;4.60;23.10;;;;;;5064881;28;20076;-69
2021/12/02 07:18:19;;;;;;;5.35;0.80;;;4.60;22.70;;;;;;5065669;28;20048;-69
2021/12/02 07:20:50;;;;;;;1.25;0.82;;;4.60;23.00;;;;;;5064861;28;20489;-68
2021/12/02 07:23:21;;;;;;;1.13;0.63;;;4.60;22.30;;;;;;5067276;28;20495;-68
2021/12/02 07:25:50;;;;;;;1.90;0.70;;;4.70;22.30;;;;;;5072331;28;20586;-68
2021/12/02 07:28:19;;;;;;;1.10;0.70;;;4.70;22.00;;;;;;5061220;28;20128;-69
2021/12/02 07:30:52;;;;;;;2.17;0.60;;;4.70;21.20;;;;;;5067290;28;20045;-69
2021/12/02 07:33:21;;;;;;;2.78;0.80;;;4.70;22.20;;;;;;5067079;28;20056;-68
2021/12/02 07:35:50;;;;;;;1.25;0.80;;;4.70;21.50;;;;;;5060035;28;20045;-68
2021/12/02 07:38:19;;;;;;;1.58;0.40;;;4.80;21.10;;;;;;5065083;28;20542;-68
2021/12/02 07:40:48;;;;;;;0.50;0.30;;;4.70;20.70;;;;;;5065565;28;20123;-67
2021/12/02 07:43:21;;;;;;;2.08;0.65;;;4.80;20.90;;;;;;5063254;28;20435;-68
2021/12/02 07:45:52;;;;;;;1.45;0.60;;;4.80;20.70;;;;;;5066727;28;20511;-68
2021/12/02 07:48:26;;;;;;;1.17;0.70;;;4.80;20.00;;;;;;5061313;28;20496;-67
2021/12/02 07:50:55;;;;;;;1.83;0.85;;;4.90;20.90;;;;;;5065200;28;20052;-68
2021/12/02 07:53:26;;;;;;;2.30;0.75;;;4.80;19.90;;;;;;5069386;28;20044;-68
2021/12/02 07:56:03;;;;;;;1.25;0.63;;;4.80;20.90;;;;;;5062206;28;20056;-68
2021/12/02 07:58:39;;;;;;;0.77;0.60;;;4.80;21.20;;;;;;5066989;28;20115;-68
2021/12/02 08:01:10;;;;;;;0.85;0.52;;;4.90;22.20;;;;;;5067542;28;20127;-68
2021/12/02 08:03:44;;;;;;;1.80;0.60;;;4.80;21.60;;;;;;5064743;28;20052;-68
2021/12/02 08:06:17;;;;;;;;;;;4.80;21.80;;;;;;5065002;28;20523;-69
2021/12/02 08:08:46;;;;;;;1.92;0.65;;;4.80;20.70;;;;;;5065056;28;20433;-69
2021/12/02 08:11:19;;;;;;;1.52;0.80;;;4.90;21.00;;;;;;5060968;28;20083;-69
2021/12/02 08:13:54;;;;;;;1.48;0.57;;;5.00;21.10;;;;;;5067584;28;20538;-69
2021/12/02 08:16:24;;;;;;;4.85;0.95;;;5.00;19.90;;;;;;5065150;28;20095;-69
2021/12/02 08:19:00;;;;;;;2.72;0.82;;;5.10;19.70;;;;;;5057839;28;20066;-69
2021/12/02 08:21:28;;;;;;;1.20;0.77;;;5.10;19.70;;;;;;5067894;28;20098;-69
2021/12/02 08:23:57;;;;;;;1.23;0.57;;;5.00;19.60;;;;;;5065317;28;20036;-69
2021/12/02 08:26:25;;;;;;;1.75;0.55;;;5.10;20.00;;;;;;5063759;28;20109;-69
2021/12/02 08:28:53;;;;;;;4.43;0.85;;;5.20;19.30;;;;;;5065425;28;20048;-69
2021/12/02 08:31:28;;;;;;;1.73;0.90;;;5.20;19.20;;;;;;5064981;28;20055;-69
2021/12/02 08:33:58;;;;;;;1.48;0.82;;;5.20;19.00;;;;;;5062574;28;20569;-69
2021/12/02 08:36:30;;;;;;;1.20;0.77;;;5.20;18.80;;;;;;5063023;28;20040;-69
2021/12/02 08:39:04;;;;;;;1.13;0.60;;;5.20;18.90;;;;;;5059872;28;20044;-68
2021/12/02 08:41:32;;;;;;;1.55;0.90;;;5.20;18.60;;;;;;5063302;28;20075;-69
2021/12/02 08:44:01;;;;;;;1.38;0.82;;;5.20;18.60;;;;;;5065882;28;20520;-69
2021/12/02 08:46:35;;;;;;;1.83;1.05;;;5.20;18.50;;;;;;5060969;28;20040;-69
2021/12/02 08:49:04;;;;;;;3.13;0.90;;;5.20;18.00;;;;;;5060248;28;20049;-69
2021/12/02 08:51:32;;;;;;;2.10;0.90;;;5.20;18.50;;;;;;5069151;28;20151;-69
2021/12/02 08:54:00;;;;;;;3.08;0.60;;;5.20;18.30;;;;;;5060850;28;20111;-69
2021/12/02 08:56:31;;;;;;;1.85;0.77;;;5.20;18.60;;;;;;5064155;28;20044;-69
2021/12/02 08:59:00;;;;;;;4.40;1.30;;;5.30;18.40;;;;;;5057342;28;20307;-69
2021/12/02 09:01:29;;;;;;;2.70;1.58;;;5.30;18.30;;;;;;5060300;28;20131;-69
2021/12/02 09:03:59;;;;;;;3.50;1.75;;;5.30;18.90;;;;;;5068729;28;20067;-69
2021/12/02 09:06:33;;;;;;;5.93;1.38;;;5.30;19.70;;;;;;5064096;28;20077;-69
2021/12/02 09:09:01;;;;;;;3.58;1.05;;;5.30;19.90;;;;;;5058741;28;20102;-69
2021/12/02 09:11:34;;;;;;;1.52;1.00;;;5.30;20.70;;;;;;5072138;28;20041;-69
2021/12/02 09:14:05;;;;;;;1.35;0.80;;;5.30;21.50;;;;;;5059634;28;20049;-69
2021/12/02 09:16:34;;;;;;;3.78;1.50;;;5.30;21.80;;;;;;5059043;28;20095;-70
2021/12/02 09:19:05;;;;;;;1.67;0.90;;;5.30;22.50;;;;;;5066344;28;20036;-68
2021/12/02 09:21:33;;;;;;;3.17;1.42;;;5.30;22.30;;;;;;5064982;28;20033;-70
2021/12/02 09:24:01;;;;;;;2.13;1.13;;;5.30;22.20;;;;;;5062559;28;20090;-70
2021/12/02 09:26:30;;;;;;;2.72;1.40;;;5.30;22.80;;;;;;5062065;28;20491;-70
2021/12/02 09:29:02;;;;;;;1.38;1.13;;;5.20;23.20;;;;;;5056706;28;20037;-69
2021/12/02 09:31:35;;;;;;;3.42;1.25;;;5.20;23.90;;;;;;5065162;28;20040;-69
2021/12/02 09:34:05;;;;;;;2.13;1.40;;;5.30;24.00;;;;;;5062729;28;20036;-69
2021/12/02 09:36:33;;;;;;;4.25;1.50;;;5.20;24.50;;;;;;5061794;28;20214;-71
2021/12/02 09:39:01;;;;;;;4.85;2.10;;;5.20;26.20;;;;;;5063508;28;20143;-71
2021/12/02 09:41:31;;;;;;;1.85;1.63;;;5.10;26.80;;;;;;5064168;28;20123;-71
2021/12/02 09:44:02;;;;;;;4.07;2.10;;;5.00;26.90;;;;;;5060147;28;20389;-72
2021/12/02 09:46:35;;;;;;;2.35;1.55;;;4.80;26.90;;;;;;5064521;28;20052;-72
2021/12/02 09:49:13;;;;;;;3.03;2.00;;;4.50;26.50;;;;;;5060696;28;20048;-72
2021/12/02 09:51:48;;;;;;;3.83;2.20;;;4.40;29.40;;;;;;5064949;28;20047;-73
2021/12/02 09:54:28;;;;;;;2.55;1.23;;;4.10;29.90;;;;;;5058877;28;20098;-72
2021/12/02 09:57:00;;;;;;;4.50;1.38;;;3.80;31.80;;;;;;5069118;28;20033;-72
2021/12/02 09:59:31;;;;;;;2.03;1.58;;;3.80;33.00;;;;;;5060272;28;20056;-71
2021/12/02 10:02:04;;;;;;;2.15;1.30;;;3.50;32.00;;;;;;5062147;28;20052;-72
2021/12/02 10:04:43;;;;;;;2.33;1.50;;;3.60;35.60;;;;;;5062842;28;20285;-74
2021/12/02 10:07:17;;;;;;;2.38;1.30;;;3.70;37.00;;;;;;5058597;28;20052;-72
2021/12/02 10:09:56;;;;;;;3.58;1.38;;;3.70;36.80;;;;;;5058191;28;20041;-72
2021/12/02 10:12:29;;;;;;;3.50;1.55;;;3.60;37.80;;;;;;5068913;28;20044;-73
2021/12/02 10:15:00;;;;;;;2.38;1.25;;;3.60;39.30;;;;;;5058990;28;20040;-73
2021/12/02 10:17:35;;;;;;;2.53;1.70;;;3.60;38.20;;;;;;5060511;28;20069;-74
2021/12/02 10:20:15;;;;;;;2.65;1.48;;;3.60;39.30;;;;;;5063552;28;20554;-73
2021/12/02 10:23:10;;;;;;;2.10;1.38;;;3.60;39.90;;;;;;5060840;28;20523;-73
2021/12/02 10:25:38;;;;;;;1.75;1.40;;;3.60;39.30;;;;;;5058268;28;20044;-72
2021/12/02 10:28:11;;;;;;;1.98;1.42;;;3.60;39.60;;;;;;5064187;28;20079;-73
2021/12/02 10:30:47;;;;;;;2.75;1.90;;;3.60;41.10;;;;;;5062366;28;20044;-73
2021/12/02 10:33:15;;;;;;;5.65;2.10;;;3.60;40.30;;;;;;5061135;28;20106;-72
2021/12/02 10:35:49;;;;;;;3.63;1.90;;;3.70;41.50;;;;;;5063776;28;21462;-72
2021/12/02 10:38:38;;;;;;;3.13;2.13;;;3.60;41.00;;;;;;5058319;28;20040;-73
2021/12/02 10:41:09;;;;;;;4.53;2.20;;;3.70;40.90;;;;;;5059285;28;20049;-73
2021/12/02 10:43:57;;;;;;;4.15;2.95;;;3.80;41.80;;;;;;5064429;28;20261;-72
2021/12/02 10:46:27;;;;;;;4.95;2.80;;;4.00;42.40;;;;;;5058812;28;20551;-72
2021/12/02 10:48:55;;;;;;;4.78;2.38;;;4.00;41.40;;;;;;5058517;28;20127;-74
2021/12/02 10:51:38;;;;;;;5.47;2.97;;;3.90;41.30;;;;;;5063852;28;20526;-72
2021/12/02 10:54:12;;;;;;;3.58;2.22;;;3.90;41.30;;;;;;5064069;28;20163;-72
2021/12/02 10:56:42;;;;;;;6.28;2.63;;;3.90;41.10;;;;;;5062373;28;20125;-72
2021/12/02 10:59:24;;;;;;;3.05;2.35;;;4.00;42.50;;;;;;5061530;28;20122;-73
2021/12/02 11:01:55;;;;;;;4.72;2.70;;;3.90;41.30;;;;;;5064048;28;20083;-73
2021/12/02 11:04:24;;;;;;;2.60;2.10;;;4.00;41.40;;;;;;5060977;28;20123;-73
2021/12/02 11:07:01;;;;;;;2.50;1.88;;;4.00;41.40;;;;;;5058724;28;20416;-72
2021/12/02 11:09:31;;;;;;;3.28;1.85;;;3.70;39.80;;;;;;5058892;28;20143;-72
2021/12/02 11:12:12;;;;;;;4.65;2.20;;;3.70;40.30;;;;;;5062660;28;20136;-72
2021/12/02 11:14:52;;;;;;;3.90;2.47;;;3.60;41.00;;;;;;5060393;28;20071;-72
2021/12/02 11:17:22;;;;;;;4.65;2.65;;;3.50;41.00;;;;;;5041467;28;20050;-71
2021/12/02 11:19:51;;;;;;;5.43;2.58;;;3.30;41.60;;;;;;5056809;28;20048;-72
2021/12/02 11:22:22;;;;;;;9.57;2.00;;;3.20;41.40;;;;;;5059936;28;20048;-70
2021/12/02 11:24:52;;;;;;;3.08;2.00;;;3.30;42.80;;;;;;5063624;28;20051;-71
2021/12/02 11:27:23;;;;;;;2.13;1.63;;;3.40;43.60;;;;;;5063262;28;20101;-72
2021/12/02 11:30:04;;;;;;;3.63;1.25;;;3.30;41.90;;;;;;5060055;28;20037;-72
2021/12/02 11:32:37;;;;;;;2.28;1.38;;;3.30;40.80;;;;;;5069417;28;20115;-72
2021/12/02 11:35:09;;;;;;;;;;;3.50;41.20;;;;;;5061472;28;20135;-73
2021/12/02 11:37:38;;;;;;;2.85;1.50;;;3.50;40.00;;;;;;5062694;28;20273;-71
2021/12/02 11:40:09;;;;;;;1.85;1.20;;;3.40;38.40;;;;;;5070015;28;20078;-72
2021/12/02 11:42:38;;;;;;;2.45;1.60;;;3.50;38.80;;;;;;5063800;28;20075;-72
2021/12/02 11:45:10;;;;;;;3.35;1.65;;;3.60;40.30;;;;;;5060708;28;20044;-73
2021/12/02 11:47:40;;;;;;;5.00;1.15;;;3.50;39.00;;;;;;5047800;28;20407;-72
2021/12/02 11:50:11;;;;;;;2.20;1.30;;;3.40;38.70;;;;;;5063508;28;20054;-72
2021/12/02 11:52:41;;;;;;;2.65;1.73;;;3.40;39.10;;;;;;5069855;28;20064;-71
2021/12/02 11:55:12;;;;;;;3.75;1.67;;;3.40;40.80;;;;;;5068022;28;20058;-70
2021/12/02 11:57:40;;;;;;;4.07;1.50;;;3.50;40.80;;;;;;5062801;28;20106;-71
2021/12/02 12:00:10;;;;;;;2.35;1.20;;;3.50;40.90;;;;;;5061266;28;20142;-71
2021/12/02 12:02:47;;;;;;;1.35;1.08;;;3.30;38.80;;;;;;5069394;28;20079;-72
2021/12/02 12:05:20;;;;;;;1.42;1.02;;;3.30;39.40;;;;;;5061507;28;20110;-72
2021/12/02 12:07:49;;;;;;;3.83;1.60;;;3.20;37.00;;;;;;5065373;28;20124;-71
2021/12/02 12:10:22;;;;;;;2.70;1.60;;;3.10;37.60;;;;;;5067967;28;20099;-71
2021/12/02 12:12:52;;;;;;;5.15;2.80;;;3.20;39.80;;;;;;5064649;28;20036;-72
2021/12/02 12:15:33;;;;;;;4.45;2.03;;;3.20;39.30;;;;;;5063353;28;20503;-72
2021/12/02 12:18:04;;;;;;;3.13;1.77;;;3.20;39.90;;;;;;5064575;28;20490;-71
2021/12/02 12:21:00;;;;;;;2.60;1.50;;;3.20;39.40;;;;;;5061566;28;20056;-72
2021/12/02 12:23:47;;;;;;;3.05;1.60;;;3.10;39.50;;;;;;5063006;28;20528;-71
2021/12/02 12:26:35;;;;;;;2.50;1.30;;;3.20;41.40;;;;;;5052625;28;20047;-72
2021/12/02 12:29:19;;;;;;;1.70;1.10;;;3.10;41.80;;;;;;5061890;28;20048;-71
2021/12/02 12:32:43;;;;;;;4.80;1.55;;;3.20;41.70;;;;;;5063483;28;20093;-71
2021/12/02 12:35:22;;;;;;;3.42;1.35;;;3.30;41.20;;;;;;5058544;28;20415;-72
2021/12/02 12:40:44;;;;;;;2.38;1.52;;;3.50;37.00;;;;;;5060709;28;20059;-71
2021/12/02 12:43:36;;;;;;;2.85;1.38;;;3.70;37.00;;;;;;5063570;28;20051;-71
2021/12/02 12:46:16;;;;;;;3.55;1.88;;;3.70;33.60;;;;;;5063361;28;20593;-71
2021/12/02 12:48:45;;;;;;;3.38;2.00;;;3.80;35.90;;;;;;5063524;28;20455;-72
2021/12/02 12:51:28;;;;;;;3.00;2.05;;;4.00;36.80;;;;;;5062306;28;20068;-71
2021/12/02 12:54:02;;;;;;;5.55;2.15;;;4.00;35.10;;;;;;5069501;28;20059;-70
2021/12/02 12:56:42;;;;;;;3.53;2.00;;;3.90;36.00;;;;;;5064823;28;20131;-71
2021/12/02 12:59:16;;;;;;;5.30;2.25;;;3.90;36.10;;;;;;5059033;28;20139;-71
2021/12/02 13:02:00;;;;;;;3.08;2.03;;;4.00;37.30;;;;;;5065205;28;20044;-72
2021/12/02 13:04:37;;;;;;;3.42;2.25;;;4.10;37.90;;;;;;5064192;28;20056;-71
2021/12/02 13:07:13;;;;;;;4.90;3.20;;;4.10;37.30;;;;;;5059715;28;20097;-72
2021/12/02 13:09:57;;;;;;;3.72;2.72;;;4.10;37.30;;;;;;5057988;28;20466;-70
2021/12/02 13:12:47;;;;;;;5.97;3.30;;;4.10;37.30;;;;;;5069493;28;20076;-71
2021/12/02 13:15:22;;;;;;;5.00;3.30;;;4.20;38.70;;;;;;5053990;28;20052;-70
2021/12/02 13:17:50;;;;;;;;;;;4.20;40.30;;;;;;5059287;28;20049;-71
2021/12/02 13:20:41;;;;;;;6.95;3.35;;;4.20;38.70;;;;;;5058378;28;19928;-71
2021/12/02 13:23:37;;;;;;;9.88;3.30;;;4.20;39.20;;;;;;5057440;28;20103;-72
2021/12/02 13:26:19;;;;;;;3.83;2.28;;;4.20;39.30;;;;;;5053285;28;20114;-71
2021/12/02 13:28:49;;;;;;;4.30;1.75;;;3.90;30.20;;;;;;5058851;28;20127;-72
2021/12/02 13:31:18;;;;;;;2.83;1.60;;;3.80;30.00;;;;;;5059551;28;20126;-70